Time;durP1;ratioP1;P1;durP2;ratioP2;P2;SDS_P1;SDS_P2;PMS_P1;PMS_P2;Temp;Humidity;BMP_temperature;BMP_pressure;BME280_temperature;BME280_humidity;BME280_pressure;Samples;Min_cycle;Max_cycle;Signal;HPM_P1;HPM_P2
2023/08/11 00:03:30;;;;;;;15.40;11.80;;;;;;;11.46;82.93;99367.02;221273;1301;22572;-72
2023/08/11 00:08:36;;;;;;;16.90;12.50;;;;;;;11.45;82.78;99365.45;221236;1305;22568;-73
2023/08/11 00:13:38;;;;;;;15.70;12.40;;;;;;;11.43;82.74;99360.30;221090;1307;22583;-72
2023/08/11 00:18:40;;;;;;;15.10;12.30;;;;;;;11.39;82.61;99362.73;221231;1304;22609;-72
2023/08/11 00:23:43;;;;;;;15.10;12.40;;;;;;;11.35;82.66;99364.65;221233;1307;22584;-72
2023/08/11 00:28:45;;;;;;;16.20;13.40;;;;;;;11.30;82.73;99362.23;221225;1307;22687;-72
2023/08/11 00:33:48;;;;;;;15.00;13.00;;;;;;;11.25;82.91;99367.25;221098;1307;22564;-71
2023/08/11 00:38:50;;;;;;;18.00;13.90;;;;;;;11.20;83.24;99366.76;221394;1304;22606;-72
2023/08/11 00:43:52;;;;;;;16.30;13.00;;;;;;;11.15;83.00;99371.05;221360;1304;22576;-73
2023/08/11 00:48:54;;;;;;;18.70;13.10;;;;;;;11.11;83.14;99372.27;221253;1304;22979;-73
2023/08/11 00:53:58;;;;;;;18.30;13.30;;;;;;;11.07;83.21;99374.30;221422;1304;22555;-72
2023/08/11 00:59:02;;;;;;;16.40;13.70;;;;;;;11.04;83.33;99371.61;221232;1304;22789;-72
2023/08/11 01:04:04;;;;;;;16.00;12.60;;;;;;;11.01;83.36;99372.15;221270;1306;22569;-73
2023/08/11 01:09:38;;;;;;;15.10;13.50;;;;;;;10.97;83.20;99374.94;220989;1307;22674;-72
2023/08/11 01:14:53;;;;;;;19.30;12.40;;;;;;;10.90;83.37;99372.13;221203;1304;22580;-71
2023/08/11 01:19:57;;;;;;;16.40;13.70;;;;;;;10.85;83.81;99369.84;221217;1305;22734;-71
2023/08/11 01:25:00;;;;;;;16.70;13.00;;;;;;;10.81;83.76;99369.72;221235;1307;22670;-73
2023/08/11 01:30:06;;;;;;;16.20;13.10;;;;;;;10.76;83.75;99371.49;221141;1307;22569;-72
2023/08/11 01:35:09;;;;;;;19.20;12.90;;;;;;;10.71;83.89;99368.51;221298;1301;22623;-72
2023/08/11 01:40:11;;;;;;;16.80;13.10;;;;;;;10.67;84.17;99368.13;221385;1305;22579;-71
2023/08/11 01:45:15;;;;;;;13.70;12.20;;;;;;;10.63;84.34;99365.07;221141;1307;22569;-73
2023/08/11 01:50:18;;;;;;;15.80;12.80;;;;;;;10.60;84.43;99361.34;221125;1307;22592;-71
2023/08/11 01:55:21;;;;;;;14.60;12.40;;;;;;;10.57;84.50;99360.73;221077;1307;22558;-73
2023/08/11 02:00:23;;;;;;;18.50;14.10;;;;;;;10.54;84.50;99360.70;221405;1298;22556;-72
2023/08/11 02:05:25;;;;;;;20.00;14.30;;;;;;;10.51;84.41;99355.09;221097;1307;23068;-72
2023/08/11 02:10:27;;;;;;;21.80;13.70;;;;;;;10.48;84.68;99357.25;221091;1304;24257;-72
2023/08/11 02:15:29;;;;;;;16.20;14.50;;;;;;;10.44;84.52;99367.16;221086;1302;22573;-72
2023/08/11 02:20:32;;;;;;;19.40;13.80;;;;;;;10.41;84.68;99362.58;221276;1304;22570;-71
2023/08/11 02:25:35;;;;;;;17.00;13.20;;;;;;;10.37;84.67;99358.84;221203;1306;22571;-71
2023/08/11 02:30:37;;;;;;;16.40;12.90;;;;;;;10.35;85.02;99361.41;221133;1307;22583;-73
2023/08/11 02:35:39;;;;;;;14.50;12.00;;;;;;;10.32;85.32;99367.83;221147;1305;22603;-71
2023/08/11 02:40:41;;;;;;;17.20;15.20;;;;;;;10.31;85.06;99373.08;221064;1305;22568;-73
2023/08/11 02:45:43;;;;;;;18.80;14.80;;;;;;;10.29;85.18;99373.35;221373;1304;22599;-73
2023/08/11 02:50:45;;;;;;;20.70;14.80;;;;;;;10.27;85.36;99373.55;221061;1307;22582;-73
2023/08/11 02:55:47;;;;;;;17.60;14.40;;;;;;;10.24;85.09;99375.58;221222;1307;22580;-72
2023/08/11 03:00:49;;;;;;;20.80;14.60;;;;;;;10.21;85.08;99380.86;221221;1306;24259;-71
2023/08/11 03:05:51;;;;;;;21.60;16.90;;;;;;;10.18;85.29;99382.59;221414;1307;25341;-73
2023/08/11 03:10:53;;;;;;;20.90;16.30;;;;;;;10.14;85.31;99380.52;221376;1307;22569;-71
2023/08/11 03:16:02;;;;;;;21.00;15.00;;;;;;;10.12;85.49;99381.36;221161;1307;22572;-72
2023/08/11 03:21:04;;;;;;;18.00;14.90;;;;;;;10.09;85.45;99384.81;221087;1307;22579;-73
2023/08/11 03:26:21;;;;;;;20.10;15.40;;;;;;;10.07;85.65;99386.81;221216;1304;22704;-72
2023/08/11 03:31:26;;;;;;;20.40;15.00;;;;;;;10.05;85.54;99385.95;221196;1305;22560;-72
2023/08/11 03:36:28;;;;;;;19.90;15.60;;;;;;;10.04;85.73;99388.89;221255;1302;22719;-72
2023/08/11 03:41:31;;;;;;;21.30;16.10;;;;;;;10.04;85.60;99388.04;221160;1306;22590;-72
2023/08/11 03:46:33;;;;;;;22.10;15.40;;;;;;;10.07;86.02;99392.52;221420;1299;22572;-72
2023/08/11 03:51:35;;;;;;;18.10;13.90;;;;;;;10.09;86.00;99395.70;221169;1305;22585;-73
2023/08/11 03:56:37;;;;;;;19.40;13.30;;;;;;;10.13;86.11;99389.64;220987;1307;25481;-72
2023/08/11 04:01:40;;;;;;;16.50;12.40;;;;;;;10.19;86.02;99387.27;221019;1307;22592;-71
2023/08/11 04:06:42;;;;;;;14.70;11.30;;;;;;;10.25;86.32;99389.36;221343;1304;22631;-72
2023/08/11 04:11:44;;;;;;;14.70;11.10;;;;;;;10.33;86.39;99391.23;221389;1304;25466;-72
2023/08/11 04:16:47;;;;;;;16.80;11.10;;;;;;;10.41;86.11;99389.09;221224;1305;23327;-73
2023/08/11 04:21:50;;;;;;;16.60;11.10;;;;;;;10.50;85.77;99393.83;221312;1301;22571;-71
2023/08/11 04:26:52;;;;;;;14.60;11.20;;;;;;;10.60;85.87;99393.22;221140;1305;22579;-72
2023/08/11 04:31:54;;;;;;;15.20;11.50;;;;;;;10.72;86.02;99398.87;221201;1307;22581;-72
2023/08/11 04:36:56;;;;;;;15.50;11.10;;;;;;;10.85;85.86;99402.73;221196;1304;24830;-74
2023/08/11 04:41:59;;;;;;;17.40;11.10;;;;;;;10.99;85.47;99406.71;221174;1305;22575;-72
2023/08/11 04:47:01;;;;;;;13.00;9.90;;;;;;;11.13;85.75;99411.80;221152;1305;23465;-72
2023/08/11 04:52:04;;;;;;;19.30;11.30;;;;;;;11.27;85.50;99417.46;221399;1304;22566;-72
2023/08/11 04:57:06;;;;;;;11.60;9.80;;;;;;;11.41;85.39;99419.20;221152;1304;22598;-74
2023/08/11 05:02:08;;;;;;;16.70;10.00;;;;;;;11.53;85.02;99418.05;221218;1307;22566;-72
2023/08/11 05:07:10;;;;;;;16.40;10.30;;;;;;;11.68;84.94;99421.85;221206;1305;22593;-72
2023/08/11 05:12:12;;;;;;;14.90;10.10;;;;;;;11.82;85.06;99423.71;221371;1305;25462;-71
2023/08/11 05:17:14;;;;;;;12.30;9.20;;;;;;;11.96;84.67;99431.02;221374;1307;22565;-71
2023/08/11 05:22:16;;;;;;;12.80;9.20;;;;;;;12.12;84.71;99427.73;221356;1307;22632;-74
2023/08/11 05:27:19;;;;;;;12.30;9.30;;;;;;;12.28;84.62;99435.15;221118;1304;22587;-72
2023/08/11 05:32:20;;;;;;;11.90;8.10;;;;;;;12.45;84.42;99429.58;221327;1307;22580;-74
2023/08/11 05:37:24;;;;;;;13.50;9.50;;;;;;;12.61;84.13;99431.62;221326;1305;22579;-73
2023/08/11 05:42:27;;;;;;;12.20;8.80;;;;;;;12.78;83.86;99437.66;221022;1299;22678;-72
2023/08/11 05:47:28;;;;;;;11.00;8.20;;;;;;;12.96;84.11;99436.95;221175;1302;22587;-73
2023/08/11 05:52:30;;;;;;;12.70;8.30;;;;;;;13.15;83.68;99436.80;221181;1298;22574;-74
2023/08/11 05:57:33;;;;;;;12.20;8.70;;;;;;;13.35;83.56;99433.29;220962;1282;22579;-73
2023/08/11 06:02:35;;;;;;;11.20;7.50;;;;;;;13.57;83.52;99434.55;220840;1306;22569;-74
2023/08/11 06:07:41;;;;;;;10.60;6.70;;;;;;;13.83;83.59;99435.02;220482;1292;22572;-74
2023/08/11 06:13:01;;;;;;;11.20;7.30;;;;;;;14.10;83.34;99426.46;220685;1299;22577;-74
2023/08/11 06:18:03;;;;;;;10.30;6.30;;;;;;;14.33;83.03;99422.06;220985;1292;22563;-73
2023/08/11 06:23:05;;;;;;;10.40;6.60;;;;;;;14.57;82.61;99425.12;220867;1295;22683;-76
2023/08/11 06:28:08;;;;;;;11.30;6.60;;;;;;;14.80;82.11;99429.99;221018;1305;22636;-75
2023/08/11 06:33:10;;;;;;;8.90;6.00;;;;;;;15.05;81.98;99427.42;220786;1295;22582;-76
2023/08/11 06:38:12;;;;;;;7.80;5.70;;;;;;;15.28;81.61;99432.59;220982;1298;22584;-74
2023/08/11 06:43:14;;;;;;;9.70;5.90;;;;;;;15.49;80.95;99434.20;220775;1289;22569;-73
2023/08/11 06:48:17;;;;;;;8.60;6.10;;;;;;;15.71;80.58;99442.30;221163;1305;22593;-73
2023/08/11 06:53:19;;;;;;;9.20;6.40;;;;;;;15.95;80.09;99440.36;220602;1305;24294;-73
2023/08/11 06:58:21;;;;;;;9.20;5.80;;;;;;;16.18;79.42;99436.80;220862;1295;22576;-73
2023/08/11 07:03:27;;;;;;;8.60;4.90;;;;;;;16.44;79.08;99444.83;221096;1295;22584;-72
2023/08/11 07:08:30;;;;;;;7.60;5.20;;;;;;;16.70;78.84;99441.29;220888;1302;22569;-73
2023/08/11 07:13:32;;;;;;;7.50;4.70;;;;;;;16.94;77.85;99437.91;220691;1305;22717;-74
2023/08/11 07:18:34;;;;;;;9.00;4.10;;;;;;;17.22;77.63;99438.48;221050;1283;22573;-73
2023/08/11 07:23:36;;;;;;;6.60;4.30;;;;;;;17.49;76.97;99442.27;220975;1287;24406;-74
2023/08/11 07:28:40;;;;;;;7.50;3.90;;;;;;;17.74;76.39;99444.78;220990;1298;22595;-73
2023/08/11 07:33:43;;;;;;;4.80;3.70;;;;;;;17.99;75.96;99445.44;221142;1283;22575;-73
2023/08/11 07:38:46;;;;;;;5.20;3.60;;;;;;;18.27;75.56;99447.51;221056;1304;22675;-74
2023/08/11 07:43:48;;;;;;;5.20;3.30;;;;;;;18.51;73.95;99453.30;221278;1298;26127;-72
2023/08/11 07:48:50;;;;;;;5.20;3.50;;;;;;;18.74;73.54;99455.14;221121;1304;25285;-74
2023/08/11 07:53:52;;;;;;;6.60;3.60;;;;;;;18.98;73.03;99460.52;221124;1302;23359;-75
2023/08/11 07:58:54;;;;;;;7.00;3.40;;;;;;;19.22;72.87;99459.42;221292;1298;22594;-74
2023/08/11 08:03:56;;;;;;;4.80;3.00;;;;;;;19.48;72.65;99451.15;221047;1284;25281;-73
2023/08/11 08:08:58;;;;;;;8.90;3.30;;;;;;;19.68;71.29;99446.92;221174;1289;22565;-73
2023/08/11 08:14:01;;;;;;;6.40;2.60;;;;;;;19.91;71.32;99442.60;221157;1304;22579;-73
2023/08/11 08:19:05;;;;;;;7.60;3.30;;;;;;;20.16;70.23;99442.54;221288;1304;22595;-75
2023/08/11 08:24:08;;;;;;;6.10;4.30;;;;;;;20.35;69.37;99443.02;221423;1298;22576;-74
2023/08/11 08:29:10;;;;;;;3.80;2.50;;;;;;;20.55;68.25;99443.59;221224;1289;22572;-73
2023/08/11 08:34:12;;;;;;;4.00;2.50;;;;;;;20.70;67.42;99440.21;221127;1304;22625;-73
2023/08/11 08:39:14;;;;;;;4.90;2.70;;;;;;;20.87;66.66;99439.41;221036;1298;22595;-74
2023/08/11 08:44:17;;;;;;;4.00;2.50;;;;;;;21.01;65.99;99435.43;221277;1304;22612;-77
2023/08/11 08:49:25;;;;;;;4.40;2.50;;;;;;;21.16;64.67;99437.67;221212;1306;26020;-76
2023/08/11 08:54:27;;;;;;;3.60;2.40;;;;;;;21.32;64.50;99436.42;221137;1305;22609;-73
2023/08/11 08:59:29;;;;;;;3.90;2.70;;;;;;;21.52;63.83;99435.23;221282;1298;25497;-72
2023/08/11 09:04:32;;;;;;;2.30;2.10;;;;;;;21.72;63.29;99436.19;221264;1298;22725;-73
2023/08/11 09:09:35;;;;;;;3.30;2.10;;;;;;;21.90;61.96;99440.02;221238;1305;22585;-73
2023/08/11 09:14:40;;;;;;;3.30;2.20;;;;;;;22.07;62.02;99439.93;221192;1289;23336;-72
2023/08/11 09:19:48;;;;;;;3.50;2.20;;;;;;;22.27;61.64;99436.31;221234;1286;23734;-71
2023/08/11 09:24:50;;;;;;;3.70;2.20;;;;;;;22.48;61.27;99434.66;221259;1298;22569;-72
2023/08/11 09:29:54;;;;;;;3.50;2.20;;;;;;;22.64;60.30;99434.11;221170;1300;22566;-74
2023/08/11 09:34:56;;;;;;;3.30;2.00;;;;;;;22.79;59.96;99435.08;221209;1306;22744;-73
2023/08/11 09:40:03;;;;;;;2.50;2.20;;;;;;;22.94;59.24;99432.77;221166;1305;22599;-73
2023/08/11 09:45:06;;;;;;;2.70;2.50;;;;;;;23.07;59.00;99432.27;221257;1299;23370;-73
2023/08/11 09:50:08;;;;;;;5.10;2.50;;;;;;;23.14;57.65;99434.19;221160;1301;22682;-74
2023/08/11 09:55:12;;;;;;;2.70;1.80;;;;;;;23.24;57.65;99430.45;221194;1305;22569;-73
2023/08/11 10:00:14;;;;;;;4.10;2.00;;;;;;;23.35;56.65;99430.39;221278;1292;25497;-72
2023/08/11 10:05:17;;;;;;;4.10;2.00;;;;;;;23.44;55.86;99426.11;221352;1298;22569;-73
2023/08/11 10:10:21;;;;;;;3.50;2.10;;;;;;;23.51;54.37;99426.79;221285;1305;22575;-74
2023/08/11 10:15:26;;;;;;;4.30;2.10;;;;;;;23.52;54.47;99421.65;221295;1302;22645;-74
2023/08/11 10:20:29;;;;;;;4.60;2.20;;;;;;;23.70;55.01;99421.99;221265;1304;22782;-73
2023/08/11 10:25:32;;;;;;;4.60;2.30;;;;;;;23.83;53.86;99424.16;221263;1286;22695;-74
2023/08/11 10:30:34;;;;;;;6.20;2.30;;;;;;;23.95;54.27;99420.08;221237;1304;22728;-77
2023/08/11 10:35:42;;;;;;;3.40;2.30;;;;;;;24.12;53.50;99416.80;221117;1304;22609;-72
2023/08/11 10:40:44;;;;;;;3.00;2.10;;;;;;;24.19;53.01;99416.19;221165;1302;22564;-74
2023/08/11 10:45:46;;;;;;;1.90;1.70;;;;;;;24.31;52.31;99406.94;221193;1306;22937;-72
2023/08/11 10:50:48;;;;;;;2.20;2.00;;;;;;;24.46;51.89;99411.02;220964;1282;180921;-79
2023/08/11 10:56:01;;;;;;;3.70;2.10;;;;;;;24.64;51.30;99403.63;221108;1304;22683;-73
2023/08/11 11:01:03;;;;;;;2.60;2.40;;;;;;;24.81;50.93;99404.89;220884;1292;22580;-73
2023/08/11 11:06:06;;;;;;;3.70;2.40;;;;;;;24.93;50.69;99398.88;221095;1301;22794;-74
2023/08/11 11:11:08;;;;;;;2.50;2.10;;;;;;;25.19;50.57;99399.91;221096;1292;22863;-73
2023/08/11 11:16:10;;;;;;;2.60;2.30;;;;;;;25.46;50.60;99398.16;221004;1304;22597;-74
2023/08/11 11:21:13;;;;;;;5.20;2.70;;;;;;;25.74;49.11;99406.10;221062;1292;22581;-73
2023/08/11 11:26:21;;;;;;;3.40;2.50;;;;;;;25.95;48.83;99405.05;221165;1298;22557;-72
2023/08/11 11:31:25;;;;;;;3.00;2.50;;;;;;;26.23;48.83;99404.41;221186;1298;22579;-75
2023/08/11 11:36:30;;;;;;;2.40;2.10;;;;;;;26.53;48.48;99403.63;221183;1298;22565;-74
2023/08/11 11:41:32;;;;;;;2.60;2.00;;;;;;;26.44;47.56;99406.69;221226;1301;22612;-73
2023/08/11 11:46:34;;;;;;;2.70;1.80;;;;;;;26.36;47.00;99409.70;221059;1304;22582;-73
2023/08/11 11:51:36;;;;;;;2.40;2.20;;;;;;;26.37;47.22;99404.27;220911;1304;22563;-76
2023/08/11 11:56:39;;;;;;;2.70;2.10;;;;;;;26.53;46.99;99401.24;221086;1302;22583;-74
2023/08/11 12:02:02;;;;;;;1.90;1.80;;;;;;;26.54;46.03;99395.55;220912;1295;22576;-74
2023/08/11 12:07:05;;;;;;;1.90;1.70;;;;;;;26.54;46.97;99391.36;220906;1302;22635;-73
2023/08/11 12:12:07;;;;;;;1.70;1.60;;;;;;;26.53;46.25;99388.98;221191;1292;23120;-74
2023/08/11 12:17:10;;;;;;;2.10;1.90;;;;;;;26.49;46.42;99380.92;221224;1298;22581;-73
2023/08/11 12:22:12;;;;;;;2.70;1.90;;;;;;;26.57;46.08;99380.02;221189;1298;22568;-71
2023/08/11 12:27:14;;;;;;;2.20;1.70;;;;;;;26.62;45.75;99381.36;221258;1305;23607;-72
2023/08/11 12:32:16;;;;;;;2.30;1.70;;;;;;;26.55;44.66;99382.96;221037;1292;22563;-74
2023/08/11 12:37:18;;;;;;;3.50;2.80;;;;;;;26.45;45.08;99380.81;221215;1301;22600;-72
2023/08/11 12:42:20;;;;;;;2.10;1.90;;;;;;;26.65;45.24;99379.29;221127;1295;22598;-73
2023/08/11 12:47:22;;;;;;;1.90;1.80;;;;;;;26.78;45.17;99384.15;221145;1304;22667;-73
2023/08/11 12:52:24;;;;;;;2.80;1.80;;;;;;;26.98;45.57;99383.45;221143;1288;22606;-72
2023/08/11 12:57:26;;;;;;;2.90;2.30;;;;;;;27.14;44.79;99383.10;220997;1298;22977;-73
2023/08/11 13:02:28;;;;;;;1.80;1.70;;;;;;;27.21;44.69;99379.63;221098;1282;22565;-71
2023/08/11 13:07:30;;;;;;;2.10;1.90;;;;;;;27.23;45.04;99371.58;221188;1282;22593;-75
2023/08/11 13:12:32;;;;;;;2.20;2.00;;;;;;;27.38;45.64;99368.60;220965;1303;25373;-73
2023/08/11 13:17:34;;;;;;;2.50;1.90;;;;;;;27.53;45.50;99373.42;221233;1298;23152;-72
2023/08/11 13:22:37;;;;;;;4.00;2.00;;;;;;;27.66;44.98;99372.51;221148;1302;22720;-72
2023/08/11 13:27:38;;;;;;;3.20;1.60;;;;;;;27.74;45.10;99374.72;221013;1298;22593;-72
2023/08/11 13:32:42;;;;;;;2.10;1.90;;;;;;;27.66;43.81;99370.17;221031;1298;22899;-73
2023/08/11 13:37:44;;;;;;;2.00;1.80;;;;;;;27.63;43.76;99364.12;221044;1282;24597;-72
2023/08/11 13:42:46;;;;;;;1.90;1.80;;;;;;;27.35;43.04;99360.20;220979;1301;22592;-72
2023/08/11 13:47:48;;;;;;;7.20;6.50;;;;;;;27.23;43.59;99360.95;221109;1292;26041;-72
2023/08/11 13:52:50;;;;;;;2.10;1.90;;;;;;;27.23;43.59;99358.94;221082;1292;22562;-73
2023/08/11 13:57:52;;;;;;;2.20;2.00;;;;;;;27.16;43.20;99357.80;220469;1288;22612;-76
2023/08/11 14:02:54;;;;;;;2.00;1.90;;;;;;;27.12;43.34;99358.98;220448;1298;22720;-74
2023/08/11 14:07:56;;;;;;;1.90;1.80;;;;;;;27.03;43.64;99361.02;220865;1305;22569;-75
2023/08/11 14:12:58;;;;;;;2.10;1.70;;;;;;;27.15;44.02;99353.46;220594;1305;23046;-75
2023/08/11 14:18:00;;;;;;;2.10;1.90;;;;;;;27.25;44.10;99346.07;220950;1305;22583;-74
2023/08/11 14:23:03;;;;;;;1.90;1.80;;;;;;;27.29;43.86;99349.19;221102;1286;22575;-72
2023/08/11 14:28:05;;;;;;;1.90;1.80;;;;;;;27.17;43.39;99348.08;221223;1305;22570;-73
2023/08/11 14:33:07;;;;;;;2.00;1.80;;;;;;;26.94;43.19;99345.49;221391;1290;22576;-73
2023/08/11 14:38:10;;;;;;;2.20;2.00;;;;;;;26.82;43.72;99347.58;221284;1306;22598;-74
2023/08/11 14:43:12;;;;;;;2.10;2.00;;;;;;;26.73;43.73;99345.18;221359;1306;23683;-74
2023/08/11 14:48:16;;;;;;;2.80;2.10;;;;;;;26.45;44.09;99345.81;221397;1298;22621;-72
2023/08/11 14:53:22;;;;;;;2.50;2.10;;;;;;;26.23;44.46;99343.94;221391;1305;22667;-73
2023/08/11 14:58:25;;;;;;;2.10;2.00;;;;;;;25.93;44.34;99343.95;221541;1305;22587;-73
2023/08/11 15:03:26;;;;;;;2.10;1.80;;;;;;;25.75;44.64;99348.01;221473;1298;24279;-72
2023/08/11 15:08:29;;;;;;;2.60;2.10;;;;;;;25.71;45.41;99348.05;221454;1299;22565;-73
2023/08/11 15:13:31;;;;;;;2.50;2.00;;;;;;;25.75;45.32;99343.45;221421;1304;22583;-73
2023/08/11 15:18:33;;;;;;;2.60;1.90;;;;;;;25.63;45.23;99337.34;221536;1301;22643;-73
2023/08/11 15:23:35;;;;;;;2.20;2.00;;;;;;;25.54;45.39;99335.96;221352;1305;22651;-74
2023/08/11 15:28:37;;;;;;;2.10;1.80;;;;;;;25.45;45.37;99339.29;221413;1301;22579;-73
2023/08/11 15:33:39;;;;;;;2.10;1.90;;;;;;;25.45;46.04;99342.42;221326;1295;22583;-74
2023/08/11 15:38:41;;;;;;;2.00;1.90;;;;;;;25.48;46.13;99338.47;221389;1301;22584;-74
2023/08/11 15:43:43;;;;;;;2.10;2.00;;;;;;;25.51;46.67;99333.73;221423;1305;22595;-73
2023/08/11 15:48:45;;;;;;;2.90;2.00;;;;;;;25.48;46.71;99334.96;221353;1304;23104;-74
2023/08/11 15:53:47;;;;;;;2.20;2.00;;;;;;;25.42;46.41;99330.23;221319;1301;22702;-73
2023/08/11 15:58:49;;;;;;;2.30;2.10;;;;;;;25.36;46.78;99327.11;221331;1304;22601;-73
2023/08/11 16:03:51;;;;;;;2.20;1.90;;;;;;;25.21;46.96;99324.67;221404;1298;22586;-74
2023/08/11 16:08:53;;;;;;;2.40;2.20;;;;;;;25.06;47.35;99323.31;221347;1305;25423;-73
2023/08/11 16:13:56;;;;;;;3.10;2.30;;;;;;;24.94;47.46;99321.06;221097;1305;22583;-73
2023/08/11 16:18:59;;;;;;;2.40;2.20;;;;;;;24.83;47.34;99323.89;221481;1301;23186;-72
2023/08/11 16:24:01;;;;;;;2.10;1.90;;;;;;;24.85;47.79;99327.73;221335;1301;22878;-75
2023/08/11 16:29:03;;;;;;;2.20;1.80;;;;;;;24.92;47.45;99328.73;221406;1301;22571;-73
2023/08/11 16:34:05;;;;;;;2.10;2.00;;;;;;;25.02;47.59;99327.09;221464;1295;22566;-74
2023/08/11 16:39:08;;;;;;;2.50;2.00;;;;;;;25.09;47.83;99326.45;221319;1301;22598;-73
2023/08/11 16:44:10;;;;;;;2.10;2.00;;;;;;;25.11;47.27;99328.51;221211;1301;22568;-74
2023/08/11 16:49:12;;;;;;;3.30;2.10;;;;;;;25.00;47.04;99332.12;221428;1304;22566;-72
2023/08/11 16:54:15;;;;;;;2.70;2.10;;;;;;;24.83;47.07;99329.20;221167;1295;22577;-74
2023/08/11 16:59:20;;;;;;;2.30;2.10;;;;;;;24.67;47.84;99329.58;221388;1304;22580;-74
2023/08/11 17:04:22;;;;;;;3.00;2.30;;;;;;;24.60;47.81;99329.48;221341;1301;25312;-74
2023/08/11 17:09:23;;;;;;;2.40;2.10;;;;;;;24.57;48.15;99323.52;221093;1305;22592;-74
2023/08/11 17:14:25;;;;;;;2.40;2.20;;;;;;;24.54;47.89;99321.45;221439;1304;22582;-74
2023/08/11 17:19:29;;;;;;;2.50;2.30;;;;;;;24.44;48.29;99328.92;221462;1298;22577;-73
2023/08/11 17:24:31;;;;;;;2.20;2.10;;;;;;;24.28;48.73;99339.02;221467;1292;24298;-74
2023/08/11 17:29:34;;;;;;;2.80;2.10;;;;;;;24.15;49.05;99346.98;221187;1305;22585;-73
2023/08/11 17:34:36;;;;;;;3.40;2.80;;;;;;;24.03;49.17;99349.08;221419;1295;22656;-73
2023/08/11 17:39:59;;;;;;;2.40;2.20;;;;;;;23.91;49.58;99352.77;221203;1304;22595;-77
2023/08/11 17:45:01;;;;;;;2.70;2.50;;;;;;;23.79;50.15;99354.05;221067;1288;22568;-74
2023/08/11 17:50:03;;;;;;;2.30;2.20;;;;;;;23.66;50.43;99356.77;221323;1305;22597;-73
2023/08/11 17:55:06;;;;;;;2.20;2.00;;;;;;;23.51;50.54;99358.55;221348;1300;22568;-73
2023/08/11 18:00:09;;;;;;;3.60;2.30;;;;;;;23.35;50.88;99360.70;221439;1305;22627;-75
2023/08/11 18:05:14;;;;;;;4.00;2.10;;;;;;;23.14;51.24;99362.40;221295;1305;22685;-74
2023/08/11 18:10:16;;;;;;;7.40;2.80;;;;;;;22.92;51.85;99366.06;221345;1298;22606;-73
2023/08/11 18:15:18;;;;;;;6.40;2.20;;;;;;;22.70;52.49;99367.58;221111;1304;22579;-76
2023/08/11 18:20:20;;;;;;;6.40;2.80;;;;;;;22.47;52.88;99371.63;221285;1304;22606;-74
2023/08/11 18:25:23;;;;;;;10.80;2.80;;;;;;;22.26;53.09;99377.34;221215;1306;22585;-74
2023/08/11 18:30:25;;;;;;;10.20;3.40;;;;;;;22.05;53.65;99381.61;221363;1305;22609;-73
2023/08/11 18:35:27;;;;;;;3.90;2.40;;;;;;;21.83;53.94;99389.12;221346;1305;22579;-75
2023/08/11 18:40:29;;;;;;;2.80;2.30;;;;;;;21.58;54.62;99392.01;221198;1304;22579;-73
2023/08/11 18:45:31;;;;;;;7.20;2.80;;;;;;;21.31;55.27;99392.21;221370;1301;23058;-74
2023/08/11 18:50:33;;;;;;;8.90;2.60;;;;;;;21.04;55.90;99393.83;221530;1301;24248;-73
2023/08/11 18:55:35;;;;;;;4.30;2.90;;;;;;;20.77;56.38;99397.47;221410;1305;22776;-74
2023/08/11 19:00:39;;;;;;;17.90;15.80;;;;;;;20.53;56.91;99403.38;221127;1305;22675;-74
2023/08/11 19:05:41;;;;;;;8.70;3.30;;;;;;;20.28;57.47;99409.26;221396;1305;22564;-75
2023/08/11 19:10:44;;;;;;;7.80;3.30;;;;;;;20.04;57.88;99408.17;221461;1298;22553;-74
2023/08/11 19:15:47;;;;;;;4.40;3.60;;;;;;;19.84;58.51;99409.75;221456;1301;22572;-73
2023/08/11 19:20:49;;;;;;;3.90;3.50;;;;;;;19.65;58.96;99412.59;221476;1301;22559;-73
2023/08/11 19:25:51;;;;;;;4.80;3.50;;;;;;;19.50;59.52;99408.12;221384;1302;22586;-75
2023/08/11 19:30:53;;;;;;;5.40;3.40;;;;;;;19.34;59.96;99407.06;221354;1304;22695;-73
2023/08/11 19:35:55;;;;;;;4.00;3.30;;;;;;;19.17;60.41;99405.37;221361;1305;22566;-74
2023/08/11 19:40:57;;;;;;;4.10;3.50;;;;;;;18.98;60.86;99401.84;221412;1301;22597;-73
2023/08/11 19:45:59;;;;;;;8.10;3.40;;;;;;;18.82;61.41;99400.87;221188;1301;22587;-76
2023/08/11 19:51:04;;;;;;;4.50;2.60;;;;;;;18.69;61.70;99403.43;221390;1304;22555;-73
2023/08/11 19:56:06;;;;;;;3.20;2.90;;;;;;;18.58;61.88;99400.37;221470;1299;22952;-74
2023/08/11 20:01:08;;;;;;;4.50;3.00;;;;;;;18.46;62.28;99401.52;221465;1304;22569;-73
2023/08/11 20:06:10;;;;;;;3.60;2.50;;;;;;;18.35;62.34;99400.92;221331;1305;24944;-74
2023/08/11 20:11:12;;;;;;;3.90;3.00;;;;;;;18.21;62.70;99404.94;221353;1305;22568;-74
2023/08/11 20:16:13;;;;;;;3.50;2.70;;;;;;;18.09;62.88;99402.19;221400;1305;25246;-74
2023/08/11 20:21:15;;;;;;;4.80;2.60;;;;;;;18.03;63.16;99399.00;221171;1301;22583;-74
2023/08/11 20:26:17;;;;;;;4.10;2.70;;;;;;;17.95;63.47;99404.98;221429;1300;22891;-74
2023/08/11 20:31:19;;;;;;;4.20;3.40;;;;;;;17.85;63.61;99404.95;221148;1301;22572;-73
2023/08/11 20:36:22;;;;;;;5.70;4.40;;;;;;;17.72;64.90;99413.38;221335;1292;22602;-74
2023/08/11 20:41:24;;;;;;;7.20;4.40;;;;;;;17.58;65.83;99416.47;221240;1301;23221;-73
2023/08/11 20:46:26;;;;;;;7.30;4.70;;;;;;;17.44;66.73;99416.98;221379;1292;22591;-74
2023/08/11 20:51:28;;;;;;;7.80;4.60;;;;;;;17.30;67.25;99416.83;221329;1301;22588;-74
2023/08/11 20:56:30;;;;;;;6.50;4.20;;;;;;;17.18;67.82;99416.58;221435;1295;22568;-73
2023/08/11 21:01:32;;;;;;;6.50;4.70;;;;;;;17.08;68.30;99417.67;221479;1298;22615;-73
2023/08/11 21:06:34;;;;;;;7.00;4.80;;;;;;;17.01;68.71;99427.31;221170;1304;24931;-73
2023/08/11 21:11:37;;;;;;;7.20;5.20;;;;;;;16.99;68.75;99431.35;221408;1305;22581;-73
2023/08/11 21:16:40;;;;;;;9.10;4.90;;;;;;;17.01;68.63;99431.42;221139;1306;22575;-73
2023/08/11 21:21:43;;;;;;;6.60;4.80;;;;;;;17.06;69.40;99429.30;221437;1304;22626;-74
2023/08/11 21:26:45;;;;;;;5.80;4.10;;;;;;;17.12;69.59;99422.98;221401;1302;23004;-73
2023/08/11 21:31:47;;;;;;;7.10;5.50;;;;;;;17.14;69.83;99423.17;221462;1301;22594;-73
2023/08/11 21:36:54;;;;;;;7.80;4.70;;;;;;;17.14;69.83;99421.04;221414;1305;22568;-74
2023/08/11 21:41:56;;;;;;;7.10;4.60;;;;;;;17.12;70.06;99422.04;221550;1302;25268;-74
2023/08/11 21:46:58;;;;;;;4.80;4.30;;;;;;;17.10;70.22;99424.14;221572;1302;22576;-72
2023/08/11 21:52:00;;;;;;;7.20;5.30;;;;;;;17.08;70.24;99428.54;221560;1301;22572;-73
2023/08/11 21:57:03;;;;;;;7.30;4.60;;;;;;;17.06;70.30;99422.16;221423;1306;22748;-73
2023/08/11 22:02:05;;;;;;;7.50;5.50;;;;;;;17.05;70.47;99422.46;221409;1304;22561;-74
2023/08/11 22:07:07;;;;;;;9.30;6.00;;;;;;;17.06;70.68;99420.17;221402;1304;22587;-74
2023/08/11 22:12:10;;;;;;;9.20;5.20;;;;;;;17.08;71.00;99419.74;221441;1304;22593;-74
2023/08/11 22:17:16;;;;;;;8.30;5.40;;;;;;;17.08;71.34;99419.37;221226;1306;22578;-73
2023/08/11 22:22:18;;;;;;;6.30;5.50;;;;;;;17.08;71.88;99423.19;221227;1301;22590;-73
2023/08/11 22:27:20;;;;;;;7.00;5.60;;;;;;;17.06;72.27;99420.80;221459;1305;25379;-73
2023/08/11 22:32:22;;;;;;;8.00;5.40;;;;;;;17.05;72.55;99422.30;221440;1304;22611;-73
2023/08/11 22:37:24;;;;;;;8.10;5.50;;;;;;;17.03;72.47;99416.05;221473;1301;22606;-74
2023/08/11 22:42:27;;;;;;;6.00;5.40;;;;;;;16.98;72.63;99410.69;221366;1304;22572;-74
2023/08/11 22:47:31;;;;;;;7.00;5.70;;;;;;;16.90;72.83;99407.54;221318;1304;157917;-74
2023/08/11 22:52:33;;;;;;;6.20;5.60;;;;;;;16.80;72.87;99403.06;221532;1301;24921;-73
2023/08/11 22:57:35;;;;;;;6.30;5.00;;;;;;;16.70;73.17;99403.61;221485;1305;22575;-75
2023/08/11 23:02:37;;;;;;;7.10;5.90;;;;;;;16.60;73.53;99400.71;221504;1301;25424;-73
2023/08/11 23:07:40;;;;;;;8.30;5.90;;;;;;;16.48;73.65;99397.10;221498;1301;23295;-73
2023/08/11 23:12:42;;;;;;;6.20;5.00;;;;;;;16.37;74.03;99396.44;221495;1305;23074;-74
2023/08/11 23:17:44;;;;;;;5.40;4.50;;;;;;;16.25;74.43;99393.96;221263;1306;22570;-73
2023/08/11 23:22:46;;;;;;;5.80;4.30;;;;;;;16.09;74.48;99396.70;221599;1305;22584;-74